createdAt,value
2022-10-12T00:01:55.968Z,99609.30
2022-10-12T00:04:30.410Z,99609.95
2022-10-12T00:07:05.165Z,99609.82
2022-10-12T00:09:37.807Z,99615.34
2022-10-12T00:12:10.508Z,99614.42
2022-10-12T00:14:43.603Z,99616.73
2022-10-12T00:17:16.218Z,99616.95
2022-10-12T00:19:51.256Z,99619.73
2022-10-12T00:22:23.217Z,99619.51
2022-10-12T00:25:01.332Z,99613.44
2022-10-12T00:27:35.120Z,99614.61
2022-10-12T00:30:10.592Z,99612.21
2022-10-12T00:32:42.547Z,99613.56
2022-10-12T00:35:15.815Z,99614.22
2022-10-12T00:37:50.395Z,99618.17
2022-10-12T00:40:22.730Z,99616.22
2022-10-12T00:42:55.433Z,99613.77
2022-10-12T00:45:29.579Z,99612.81
2022-10-12T00:48:03.227Z,99613.96
2022-10-12T00:50:36.718Z,99613.84
2022-10-12T00:53:13.135Z,99616.14
2022-10-12T00:55:49.167Z,99619.09
2022-10-12T00:58:21.394Z,99616.10
2022-10-12T01:00:53.759Z,99619.52
2022-10-12T01:03:28.147Z,99616.63
2022-10-12T01:06:01.170Z,99614.56
2022-10-12T01:08:34.557Z,99616.00
2022-10-12T01:11:07.699Z,99614.50
2022-10-12T01:13:39.802Z,99616.94
2022-10-12T01:16:17.985Z,99613.87
2022-10-12T01:18:54.690Z,99608.73
2022-10-12T01:21:27.048Z,99605.77
2022-10-12T01:24:31.909Z,99608.14
2022-10-12T01:27:36.467Z,99611.26
2022-10-12T01:30:14.263Z,99608.01
2022-10-12T01:33:09.755Z,99608.19
2022-10-12T01:35:47.574Z,99612.84
2022-10-12T01:38:29.002Z,99615.41
2022-10-12T01:41:04.386Z,99616.29
2022-10-12T01:43:41.138Z,99613.09
2022-10-12T01:46:53.428Z,99611.86
2022-10-12T01:49:29.045Z,99615.92
2022-10-12T01:52:18.012Z,99615.81
2022-10-12T01:55:00.136Z,99616.55
2022-10-12T01:57:37.289Z,99614.72
2022-10-12T02:00:13.679Z,99614.23
2022-10-12T02:02:52.058Z,99612.48
2022-10-12T02:05:31.749Z,99614.35
2022-10-12T02:08:07.155Z,99612.04
2022-10-12T02:10:45.903Z,99611.52
2022-10-12T02:13:19.961Z,99615.84
2022-10-12T02:15:52.786Z,99616.53
2022-10-12T02:18:28.801Z,99614.73
2022-10-12T02:21:02.707Z,99614.22
2022-10-12T02:23:37.731Z,99614.20
2022-10-12T02:26:13.389Z,99612.14
2022-10-12T02:28:47.042Z,99611.81
2022-10-12T02:31:27.233Z,99610.46
2022-10-12T02:34:05.006Z,99612.53
2022-10-12T02:36:43.821Z,99608.97
2022-10-12T02:39:21.207Z,99614.44
2022-10-12T02:41:56.518Z,99618.21
2022-10-12T02:44:32.308Z,99626.08
2022-10-12T02:47:06.950Z,99621.96
2022-10-12T02:49:39.507Z,99626.39
2022-10-12T02:52:12.652Z,99623.66
2022-10-12T02:54:48.225Z,99623.16
2022-10-12T02:57:21.312Z,99623.02
2022-10-12T02:59:57.295Z,99624.13
2022-10-12T03:02:30.516Z,99626.59
2022-10-12T03:05:04.389Z,99630.60
2022-10-12T03:07:39.974Z,99628.41
2022-10-12T03:10:16.214Z,99628.14
2022-10-12T03:12:50.375Z,99624.96
2022-10-12T03:15:25.285Z,99620.56
2022-10-12T03:17:57.757Z,99617.92
2022-10-12T03:20:31.398Z,99614.52
2022-10-12T03:23:07.424Z,99613.63
2022-10-12T03:25:41.332Z,99611.70
2022-10-12T03:28:13.590Z,99609.76
2022-10-12T03:30:47.865Z,99610.84
2022-10-12T03:33:21.383Z,99609.35
2022-10-12T03:35:54.551Z,99610.00
2022-10-12T03:38:27.463Z,99610.25
2022-10-12T03:41:05.697Z,99611.97
2022-10-12T03:43:40.747Z,99619.02
2022-10-12T03:46:14.132Z,99622.00
2022-10-12T03:48:48.230Z,99622.14
2022-10-12T03:51:23.106Z,99625.42
2022-10-12T03:53:55.712Z,99627.40
2022-10-12T03:56:28.023Z,99628.58
2022-10-12T03:59:00.884Z,99631.61
2022-10-12T04:01:35.772Z,99628.21
2022-10-12T04:04:09.147Z,99631.86
2022-10-12T04:06:44.971Z,99631.76
2022-10-12T04:09:19.630Z,99631.79
2022-10-12T04:11:55.167Z,99628.54
2022-10-12T04:14:27.306Z,99629.80
2022-10-12T04:17:03.471Z,99625.51
2022-10-12T04:19:37.376Z,99623.79
2022-10-12T04:22:12.512Z,99631.26
2022-10-12T04:24:44.305Z,99631.75
2022-10-12T04:27:16.135Z,99630.02
2022-10-12T04:29:49.877Z,99631.02
2022-10-12T04:32:23.233Z,99631.66
2022-10-12T04:35:01.856Z,99632.73
2022-10-12T04:37:34.457Z,99632.79
2022-10-12T04:40:07.939Z,99632.70
2022-10-12T04:42:43.646Z,99629.23
2022-10-12T04:45:16.668Z,99633.07
2022-10-12T04:47:51.228Z,99635.46
2022-10-12T04:50:27.499Z,99635.76
2022-10-12T04:53:02.032Z,99637.81
2022-10-12T04:55:34.767Z,99641.42
2022-10-12T04:58:06.689Z,99642.13
2022-10-12T05:00:39.404Z,99642.11
2022-10-12T05:03:13.285Z,99646.85
2022-10-12T05:05:47.489Z,99649.33
2022-10-12T05:08:21.874Z,99642.03
2022-10-12T05:10:56.431Z,99647.04
2022-10-12T05:13:29.050Z,99648.31
2022-10-12T05:16:02.340Z,99643.61
2022-10-12T05:18:34.605Z,99641.54
2022-10-12T05:21:08.972Z,99644.95
2022-10-12T05:23:40.998Z,99653.21
2022-10-12T05:26:16.058Z,99655.02
2022-10-12T05:28:48.499Z,99656.27
2022-10-12T05:31:24.517Z,99656.64
2022-10-12T05:33:57.799Z,99658.17
2022-10-12T05:36:30.338Z,99660.39
2022-10-12T05:39:03.653Z,99663.05
2022-10-12T05:41:37.841Z,99662.34
2022-10-12T05:44:11.961Z,99662.30
2022-10-12T05:46:46.625Z,99665.41
2022-10-12T05:49:19.353Z,99662.48
2022-10-12T05:51:54.522Z,99660.44
2022-10-12T05:54:28.371Z,99660.63
2022-10-12T05:57:00.750Z,99659.89
2022-10-12T05:59:33.446Z,99663.77
2022-10-12T06:02:07.376Z,99660.77
2022-10-12T06:04:40.888Z,99658.95
2022-10-12T06:07:13.442Z,99662.02
2022-10-12T06:09:48.511Z,99664.20
2022-10-12T06:12:20.811Z,99666.01
2022-10-12T06:14:54.323Z,99665.22
2022-10-12T06:17:29.193Z,99669.18
2022-10-12T06:20:04.233Z,99660.73
2022-10-12T06:22:37.730Z,99658.04
2022-10-12T06:25:11.255Z,99664.11
2022-10-12T06:27:44.084Z,99667.73
2022-10-12T06:30:16.278Z,99665.33
2022-10-12T06:32:51.565Z,99670.48
2022-10-12T06:35:23.785Z,99668.77
2022-10-12T06:37:56.603Z,99666.97
2022-10-12T06:40:32.242Z,99670.09
2022-10-12T06:43:05.036Z,99670.36
2022-10-12T06:45:39.776Z,99668.00
2022-10-12T06:48:18.586Z,99673.02
2022-10-12T06:50:54.589Z,99670.91
2022-10-12T06:53:31.374Z,99668.56
2022-10-12T06:56:04.193Z,99671.71
2022-10-12T06:58:38.388Z,99669.58
2022-10-12T07:01:12.434Z,99672.45
2022-10-12T07:03:44.380Z,99665.98
2022-10-12T07:06:16.833Z,99666.56
2022-10-12T07:08:49.179Z,99664.24
2022-10-12T07:11:21.168Z,99667.23
2022-10-12T07:13:54.162Z,99666.67
2022-10-12T07:16:28.725Z,99670.67
2022-10-12T07:19:01.815Z,99671.33
2022-10-12T07:21:34.989Z,99672.08
2022-10-12T07:24:09.627Z,99671.30
2022-10-12T07:26:43.714Z,99669.13
2022-10-12T07:29:20.010Z,99671.52
2022-10-12T07:31:53.190Z,99670.62
2022-10-12T07:34:31.050Z,99672.90
2022-10-12T07:37:03.699Z,99667.92
2022-10-12T07:39:37.054Z,99667.02
2022-10-12T07:42:16.855Z,99665.04
2022-10-12T07:44:54.180Z,99659.12
2022-10-12T07:47:54.088Z,99655.48
2022-10-12T07:50:31.067Z,99658.72
2022-10-12T07:53:07.459Z,99658.27
2022-10-12T07:55:45.379Z,99660.52
2022-10-12T07:58:19.878Z,99659.12
2022-10-12T08:00:53.738Z,99658.33
2022-10-12T08:03:27.897Z,99660.20
2022-10-12T08:06:04.212Z,99659.11
2022-10-12T08:08:40.024Z,99658.70
2022-10-12T08:11:41.993Z,99651.28
2022-10-12T08:14:21.687Z,99654.34
2022-10-12T08:16:59.051Z,99653.28
2022-10-12T08:19:40.506Z,99650.19
2022-10-12T08:22:18.738Z,99652.64
2022-10-12T08:24:57.012Z,99650.95
2022-10-12T08:27:34.382Z,99650.15
2022-10-12T08:30:13.743Z,99652.65
2022-10-12T08:32:46.792Z,99648.73
2022-10-12T08:35:22.501Z,99647.83
2022-10-12T08:37:56.035Z,99643.54
2022-10-12T08:40:35.645Z,99645.08
2022-10-12T08:43:20.599Z,99643.77
2022-10-12T08:45:59.061Z,99645.68
2022-10-12T08:49:03.810Z,99646.80
2022-10-12T08:51:49.113Z,99650.07
2022-10-12T08:54:32.952Z,99644.48
2022-10-12T08:57:15.495Z,99642.75
2022-10-12T08:59:52.967Z,99639.27
2022-10-12T09:02:46.407Z,99641.61
2022-10-12T09:05:49.703Z,99638.61
2022-10-12T09:08:38.858Z,99641.99
2022-10-12T09:11:32.568Z,99639.52
2022-10-12T09:14:32.977Z,99634.92
2022-10-12T09:24:26.293Z,99622.70
2022-10-12T09:27:30.681Z,99624.27
2022-10-12T09:30:09.402Z,99622.86
2022-10-12T09:33:09.623Z,99614.71
2022-10-12T09:35:52.127Z,99619.12
2022-10-12T09:42:15.438Z,99616.23
2022-10-12T09:44:55.413Z,99619.40
2022-10-12T09:50:46.837Z,99625.14
2022-10-12T09:53:35.318Z,99619.43
2022-10-12T09:56:38.062Z,99619.00
2022-10-12T10:02:58.125Z,99616.65
2022-10-12T10:05:35.113Z,99612.90
2022-10-12T10:14:48.984Z,99601.16
2022-10-12T10:17:57.747Z,99598.77
2022-10-12T10:21:00.088Z,99597.40
2022-10-12T10:24:03.938Z,99598.86
2022-10-12T10:27:24.086Z,99597.74
2022-10-12T10:30:29.613Z,99595.85
2022-10-12T10:33:28.219Z,99593.51
2022-10-12T10:36:46.981Z,99592.95
2022-10-12T10:39:29.934Z,99589.01
2022-10-12T10:42:21.228Z,99589.67
2022-10-12T10:45:03.158Z,99591.00
2022-10-12T10:47:51.506Z,99589.06
2022-10-12T10:50:37.591Z,99586.59
2022-10-12T10:53:19.438Z,99586.48
2022-10-12T10:56:00.206Z,99585.80
2022-10-12T10:58:40.067Z,99583.73
2022-10-12T11:01:45.738Z,99583.34
2022-10-12T11:04:48.570Z,99580.89
2022-10-12T11:07:32.720Z,99582.15
2022-10-12T11:10:24.798Z,99580.45
2022-10-12T11:13:06.540Z,99579.77
2022-10-12T11:19:00.837Z,99570.97
2022-10-12T11:21:51.936Z,99568.23
2022-10-12T11:24:33.004Z,99568.11
2022-10-12T11:27:18.802Z,99560.52
2022-10-12T11:30:09.448Z,99564.98
2022-10-12T11:32:48.151Z,99563.70
2022-10-12T11:35:31.103Z,99562.86
2022-10-12T11:38:06.574Z,99560.61
2022-10-12T11:43:45.043Z,99551.70
2022-10-12T11:46:29.945Z,99545.11
2022-10-12T11:49:32.776Z,99542.72
2022-10-12T11:52:12.514Z,99538.96
2022-10-12T11:54:56.458Z,99534.52
2022-10-12T11:57:53.451Z,99530.52
2022-10-12T12:00:59.006Z,99529.40
2022-10-12T12:03:41.346Z,99529.04
2022-10-12T12:10:53.724Z,99526.51
2022-10-12T12:13:56.997Z,99525.70
2022-10-12T12:16:50.274Z,99524.20
2022-10-12T12:20:16.318Z,99519.52
2022-10-12T12:22:58.917Z,99517.88
2022-10-12T12:26:04.435Z,99518.75
2022-10-12T12:29:05.350Z,99518.48
2022-10-12T12:31:44.347Z,99517.57
2022-10-12T12:34:19.354Z,99518.52
2022-10-12T12:51:45.197Z,99504.79
2022-10-12T12:54:33.897Z,99499.66
2022-10-12T13:01:00.821Z,99492.98
2022-10-12T13:08:22.049Z,99488.70
2022-10-12T13:15:24.039Z,99477.61
2022-10-12T13:18:45.785Z,99477.78
2022-10-12T13:21:26.484Z,99478.65
2022-10-12T13:24:18.482Z,99476.16
2022-10-12T13:27:41.378Z,99481.27
2022-10-12T13:30:28.838Z,99484.86
2022-10-12T13:33:17.586Z,99479.98
2022-10-12T13:36:05.783Z,99479.95
2022-10-12T13:39:49.861Z,99478.73
2022-10-12T13:42:30.018Z,99473.02
2022-10-12T13:51:38.057Z,99472.96
2022-10-12T13:54:40.110Z,99473.06
2022-10-12T13:57:24.060Z,99476.13
2022-10-12T14:00:29.210Z,99471.05
2022-10-12T14:06:42.887Z,99475.34
2022-10-12T14:09:23.103Z,99476.94
2022-10-12T14:12:04.189Z,99469.67
2022-10-12T14:14:47.120Z,99470.91
2022-10-12T14:17:29.235Z,99464.92
2022-10-12T14:20:24.004Z,99466.50
2022-10-12T14:23:02.352Z,99464.57
2022-10-12T14:26:01.155Z,99464.66
2022-10-12T14:28:38.551Z,99464.44
2022-10-12T14:31:12.019Z,99459.33
2022-10-12T14:33:50.199Z,99461.60
2022-10-12T14:36:30.781Z,99464.87
2022-10-12T14:39:30.961Z,99463.52
2022-10-12T14:45:29.670Z,99455.30
2022-10-12T14:48:14.363Z,99450.36
2022-10-12T14:50:52.813Z,99452.65
2022-10-12T14:57:33.319Z,99448.00
2022-10-12T15:00:38.333Z,99447.38
2022-10-12T15:03:20.212Z,99447.23
2022-10-12T15:05:56.985Z,99448.05
2022-10-12T15:08:32.856Z,99445.29
2022-10-12T15:11:42.706Z,99444.91
2022-10-12T15:14:51.903Z,99450.77
2022-10-12T15:17:25.665Z,99451.54
2022-10-12T15:20:08.614Z,99453.88
2022-10-12T15:23:08.111Z,99451.95
2022-10-12T15:26:19.610Z,99455.38
2022-10-12T15:33:31.567Z,99461.86
2022-10-12T15:40:00.502Z,99464.63
2022-10-12T15:42:40.054Z,99466.71
2022-10-12T15:46:02.936Z,99471.27
2022-10-12T15:49:01.382Z,99472.02
2022-10-12T15:54:48.948Z,99472.45
2022-10-12T15:57:24.845Z,99473.55
2022-10-12T16:00:24.127Z,99476.42
2022-10-12T16:03:26.415Z,99478.39
2022-10-12T16:10:20.318Z,99485.14
2022-10-12T16:12:58.082Z,99486.70
2022-10-12T16:16:00.695Z,99484.08
2022-10-12T16:18:47.891Z,99485.83
2022-10-12T16:21:53.745Z,99487.92
2022-10-12T16:24:30.337Z,99488.79
2022-10-12T16:27:57.867Z,99488.42
2022-10-12T16:30:30.954Z,99488.92
2022-10-12T16:33:29.323Z,99486.44
2022-10-12T16:43:17.134Z,99487.20
2022-10-12T16:46:02.945Z,99490.86
2022-10-12T16:48:40.990Z,99487.81
2022-10-12T16:51:19.759Z,99492.36
2022-10-12T16:57:40.369Z,99490.20
2022-10-12T17:00:22.597Z,99495.29
2022-10-12T17:03:42.268Z,99491.55
2022-10-12T17:06:21.360Z,99491.65
2022-10-12T17:08:58.991Z,99494.63
2022-10-12T17:12:00.757Z,99495.80
2022-10-12T17:14:41.397Z,99495.42
2022-10-12T17:18:02.010Z,99493.43
2022-10-12T17:20:37.167Z,99497.44
2022-10-12T17:23:41.807Z,99496.28
2022-10-12T17:27:08.917Z,99495.29
2022-10-12T17:30:15.021Z,99496.97
2022-10-12T17:32:54.160Z,99496.74
2022-10-12T17:35:28.604Z,99498.64
2022-10-12T17:38:30.028Z,99494.36
2022-10-12T17:44:56.974Z,99502.33
2022-10-12T17:47:31.161Z,99504.06
2022-10-12T17:50:04.328Z,99503.31
2022-10-12T17:52:42.359Z,99503.44
2022-10-12T17:55:43.371Z,99501.05
2022-10-12T18:05:05.110Z,99508.56
2022-10-12T18:07:42.120Z,99505.36
2022-10-12T18:11:31.318Z,99500.39
2022-10-12T18:14:58.960Z,99497.86
2022-10-12T18:17:34.596Z,99498.83
2022-10-12T18:20:14.011Z,99499.29
2022-10-12T18:27:23.392Z,99493.39
2022-10-12T18:30:25.593Z,99493.31
2022-10-12T18:33:04.052Z,99496.16
2022-10-12T18:35:43.489Z,99494.12
2022-10-12T18:42:03.767Z,99494.26
2022-10-12T18:45:29.561Z,99500.73
2022-10-12T18:48:08.401Z,99502.35
2022-10-12T18:51:11.795Z,99498.20
2022-10-12T18:53:54.438Z,99504.41
2022-10-12T18:56:37.573Z,99503.30
2022-10-12T18:59:13.203Z,99502.11
2022-10-12T19:01:50.694Z,99503.29
2022-10-12T19:04:26.869Z,99498.73
2022-10-12T19:07:28.173Z,99499.14
2022-10-12T19:11:15.085Z,99500.84
2022-10-12T19:14:40.532Z,99503.46
2022-10-12T19:17:38.495Z,99501.43
2022-10-12T19:20:40.047Z,99506.68
2022-10-12T19:23:21.402Z,99508.73
2022-10-12T19:33:28.490Z,99518.11
2022-10-12T19:36:40.816Z,99516.06
2022-10-12T19:40:07.649Z,99513.08
2022-10-12T19:42:43.402Z,99515.10
2022-10-12T19:45:25.079Z,99518.14
2022-10-12T19:51:26.214Z,99512.33
2022-10-12T19:57:38.802Z,99514.34
2022-10-12T20:00:27.028Z,99519.79
2022-10-12T20:03:02.445Z,99517.30
2022-10-12T20:05:39.952Z,99520.77
2022-10-12T20:09:09.188Z,99519.95
2022-10-12T20:11:50.619Z,99521.07
2022-10-12T20:14:53.539Z,99519.13
2022-10-12T20:17:50.467Z,99520.89
2022-10-12T20:20:27.231Z,99519.36
2022-10-12T20:23:02.319Z,99517.64
2022-10-12T20:26:01.598Z,99521.34
2022-10-12T20:32:45.233Z,99528.65
2022-10-12T20:35:19.812Z,99530.94
2022-10-12T20:38:18.095Z,99532.38
2022-10-12T20:45:17.101Z,99529.68
2022-10-12T20:47:52.954Z,99526.48
2022-10-12T20:54:07.333Z,99525.35
2022-10-12T21:09:19.895Z,99521.36
2022-10-12T21:11:56.291Z,99520.68
2022-10-12T21:14:58.792Z,99518.04
2022-10-12T21:17:57.837Z,99519.30
2022-10-12T21:20:38.714Z,99518.51
2022-10-12T21:24:25.253Z,99515.99
2022-10-12T21:27:51.065Z,99516.28
2022-10-12T21:30:24.410Z,99514.60
2022-10-12T21:32:59.925Z,99515.92
2022-10-12T21:35:34.654Z,99516.46
2022-10-12T21:38:35.591Z,99516.66
2022-10-12T21:41:59.288Z,99515.64
2022-10-12T21:45:07.146Z,99515.92
2022-10-12T21:47:43.130Z,99514.04
2022-10-12T21:51:29.228Z,99510.98
2022-10-12T21:54:29.425Z,99508.88
2022-10-12T21:57:04.951Z,99509.65
2022-10-12T22:00:09.124Z,99511.38
2022-10-12T22:02:47.406Z,99512.84
2022-10-12T22:05:25.493Z,99510.31
2022-10-12T22:11:50.025Z,99504.48
2022-10-12T22:14:24.987Z,99506.16
2022-10-12T22:17:47.031Z,99507.33
2022-10-12T22:21:07.805Z,99506.77
2022-10-12T22:23:42.410Z,99508.95
2022-10-12T22:26:23.388Z,99506.25
2022-10-12T22:29:07.065Z,99503.42
2022-10-12T22:31:47.955Z,99499.77
2022-10-12T22:34:26.765Z,99499.28
2022-10-12T22:44:03.420Z,99495.73
2022-10-12T22:46:40.372Z,99499.92
2022-10-12T22:50:03.461Z,99495.96
2022-10-12T22:53:04.789Z,99495.83
2022-10-12T22:56:05.621Z,99492.09
2022-10-12T22:58:49.073Z,99491.29
2022-10-12T23:01:27.110Z,99486.87
2022-10-12T23:03:59.984Z,99483.38
2022-10-12T23:10:44.936Z,99485.44
2022-10-12T23:13:44.422Z,99485.52
2022-10-12T23:16:25.239Z,99487.30
2022-10-12T23:19:04.998Z,99485.56
2022-10-12T23:21:39.334Z,99484.83
2022-10-12T23:24:13.094Z,99484.45
2022-10-12T23:26:51.917Z,99483.61
2022-10-12T23:29:29.706Z,99483.18
2022-10-12T23:32:11.220Z,99483.58
2022-10-12T23:34:48.174Z,99481.40
2022-10-12T23:38:16.695Z,99484.30
2022-10-12T23:40:51.000Z,99486.48
2022-10-12T23:43:54.619Z,99487.58
2022-10-12T23:50:48.925Z,99488.77
2022-10-12T23:53:23.733Z,99489.70
2022-10-12T23:56:22.004Z,99494.16
